中国METAR電文


隠岐(RJNO)
07/19 16:00
RJNO 190700Z 22015KT 9999 FEW007 SCT030 BKNXXX 25/25 Q1007 RMK
A2974=

鳥取(RJOR)
07/19 17:00
METAR RJOR 190800Z 16005KT 130V200 9999 FEW020 SCT060 BKN150 27/24
Q1007 RMK 1CU020 3SC060 5AC150 A2976=

美保(RJOH)
07/19 17:25
RJOH 190825Z 17004KT 140V200 9999 FEW030 BKN120 BKN150 29/26
Q1006 RMK 1CU030 5AC120 7AC150 A2973=

出雲(RJOC)
07/19 17:00
METAR RJOC 190800Z 22006KT 9999 FEW020 SCT035 BKN110 29/25 Q1006 RMK
1CU020 3CU035 5AC110 A2972=

石見(RJOW)
07/19 17:00
METAR RJOW 190800Z 16006KT 140V200 9999 FEW003 SCT040 BKN170 27/25
Q1007 RMK 1ST003 3CU040 5AC170 A2976=

岡山(RJOB)
07/19 17:34
RJOB 190834Z 17006KT 130V210 9999 FEW025 SCT120 BKN/// 30/24
Q1008 RMK 1CU025 4AC120 A2979 P/FR=

新広島(RJOA)
07/19 17:00
METAR RJOA 190800Z 18004KT 090V250 9999 FEW025 SCT110 30/23 Q1009
RMK 1CU025 3AC110 A2982=

岩国(RJOI)
07/19 16:56
METAR RJOI 190756Z 19010KT 9999 SCT065 SCT120 BKN200 31/26 A2977 RMK
AO2 RAB18E53 SLP079 P0000 T03110256=

防府(RJOF)
07/19 17:00
METAR RJOF 190800Z VRB02KT 9999 FEW008 SCT150 BKN250 28/24 Q1008 RMK
1ST008 4AC150 A2978 WIND EST=

宇部(RJDC)
07/19 17:00
METAR RJDC 190800Z 14004KT 9999 FEW010 SCT/// 28/25 Q1008 RMK 1CU010
A2977=

小月(RJOZ)
07/19 17:00
METAR RJOZ 190800Z VRB01KT 9999 FEW030 BKN180 BKN/// 29/25 Q1008 RMK
1CU030 5AC180 A2977=
Copyright(c) 2014 International Meteorological & Oceanographic Consultants Co,.Ltd. All Rights Reserved. Design by http://f-tpl.com